createdAt,value
2022-10-05T00:01:24.860Z,101519.16
2022-10-05T00:04:38.489Z,101526.88
2022-10-05T00:07:20.894Z,101535.75
2022-10-05T00:10:12.467Z,101531.34
2022-10-05T00:12:59.497Z,101528.97
2022-10-05T00:15:39.614Z,101534.81
2022-10-05T00:18:28.507Z,101539.25
2022-10-05T00:21:08.555Z,101537.69
2022-10-05T00:23:56.484Z,101545.19
2022-10-05T00:26:39.690Z,101548.78
2022-10-05T00:29:30.480Z,101553.81
2022-10-05T00:32:10.973Z,101548.59
2022-10-05T00:34:57.439Z,101557.63
2022-10-05T00:37:37.574Z,101556.03
2022-10-05T00:40:39.544Z,101558.78
2022-10-05T00:43:31.623Z,101555.75
2022-10-05T00:46:32.455Z,101567.28
2022-10-05T00:49:24.532Z,101567.06
2022-10-05T00:52:54.471Z,101562.09
2022-10-05T00:56:00.432Z,101565.59
2022-10-05T00:59:09.419Z,101568.06
2022-10-05T01:02:09.614Z,101568.03
2022-10-05T01:05:21.410Z,101574.88
2022-10-05T01:08:23.371Z,101579.00
2022-10-05T01:11:06.532Z,101581.75
2022-10-05T01:14:17.385Z,101572.34
2022-10-05T01:17:36.365Z,101582.50
2022-10-05T01:20:29.386Z,101581.44
2022-10-05T01:23:39.777Z,101577.81
2022-10-05T01:26:46.661Z,101576.72
2022-10-05T01:29:47.882Z,101579.69
2022-10-05T01:32:56.395Z,101588.56
2022-10-05T01:36:21.187Z,101584.78
2022-10-05T01:39:17.331Z,101598.84
2022-10-05T01:42:10.367Z,101593.06
2022-10-05T01:45:13.503Z,101598.03
2022-10-05T01:48:09.327Z,101590.34
2022-10-05T01:51:14.368Z,101600.00
2022-10-05T01:54:12.723Z,101603.66
2022-10-05T01:57:14.342Z,101599.50
2022-10-05T02:00:08.354Z,101606.16
2022-10-05T02:03:02.614Z,101610.88
2022-10-05T02:06:04.340Z,101605.88
2022-10-05T02:08:59.361Z,101610.88
2022-10-05T02:11:40.916Z,101614.50
2022-10-05T02:14:37.346Z,101618.97
2022-10-05T02:17:23.869Z,101620.34
2022-10-05T02:20:19.283Z,101622.84
2022-10-05T02:23:06.139Z,101621.47
2022-10-05T02:25:58.325Z,101629.41
2022-10-05T02:28:51.446Z,101633.31
2022-10-05T02:31:38.397Z,101630.81
2022-10-05T02:34:28.778Z,101638.81
2022-10-05T02:38:14.282Z,101639.06
2022-10-05T02:41:25.303Z,101644.56
2022-10-05T02:44:35.276Z,101643.97
2022-10-05T02:47:53.302Z,101654.16
2022-10-05T02:51:05.282Z,101652.22
2022-10-05T02:54:22.265Z,101642.84
2022-10-05T02:57:16.462Z,101654.16
2022-10-05T03:00:18.239Z,101655.44
2022-10-05T03:03:24.314Z,101653.00
2022-10-05T03:26:16.560Z,101684.81
2022-10-05T03:29:09.154Z,101689.94
2022-10-05T03:32:35.554Z,101685.50
2022-10-05T03:35:27.610Z,101676.13
2022-10-05T03:38:31.515Z,101681.38
2022-10-05T03:41:32.005Z,101696.25
2022-10-05T03:44:43.509Z,101704.78
2022-10-05T03:47:51.515Z,101694.28
2022-10-05T03:50:43.663Z,101705.47
2022-10-05T03:53:36.499Z,101702.09
2022-10-05T03:56:24.585Z,101706.47
2022-10-05T03:59:27.729Z,101710.53
2022-10-05T04:02:13.682Z,101712.72
2022-10-05T04:05:19.449Z,101712.31
2022-10-05T04:08:09.453Z,101716.94
2022-10-05T04:10:59.442Z,101725.59
2022-10-05T04:13:54.587Z,101707.31
2022-10-05T04:16:58.462Z,101718.81
2022-10-05T04:20:03.506Z,101720.09
2022-10-05T04:23:10.252Z,101730.22
2022-10-05T04:26:05.435Z,101724.03
2022-10-05T04:28:57.456Z,101735.47
2022-10-05T04:31:53.624Z,101734.78
2022-10-05T04:35:00.465Z,101736.59
2022-10-05T04:38:04.427Z,101745.72
2022-10-05T04:41:10.454Z,101750.09
2022-10-05T04:44:12.578Z,101745.47
2022-10-05T04:46:59.466Z,101757.00
2022-10-05T04:50:12.919Z,101757.34
2022-10-05T04:53:37.418Z,101768.38
2022-10-05T04:56:41.437Z,101768.91
2022-10-05T04:59:47.398Z,101782.28
2022-10-05T05:02:34.443Z,101776.19
2022-10-05T05:06:16.036Z,101782.78
2022-10-05T05:09:31.384Z,101795.81
2022-10-05T05:12:39.714Z,101790.03
2022-10-05T05:15:53.437Z,101792.16
2022-10-05T05:19:02.385Z,101793.00
2022-10-05T05:21:58.868Z,101798.53
2022-10-05T05:24:57.381Z,101799.56
2022-10-05T05:27:47.571Z,101807.84
2022-10-05T05:30:54.415Z,101806.44
2022-10-05T05:33:54.388Z,101810.13
2022-10-05T05:36:53.388Z,101812.88
2022-10-05T05:39:53.506Z,101829.06
2022-10-05T05:42:57.340Z,101831.78
2022-10-05T05:46:05.345Z,101826.97
2022-10-05T05:48:47.480Z,101839.09
2022-10-05T05:51:53.343Z,101844.31
2022-10-05T05:54:42.425Z,101839.47
2022-10-05T05:57:39.326Z,101839.69
2022-10-05T06:00:43.169Z,101838.34
2022-10-05T06:03:46.284Z,101845.66
2022-10-05T06:06:39.373Z,101852.28
2022-10-05T06:09:41.414Z,101853.53
2022-10-05T06:12:39.322Z,101859.56
2022-10-05T06:15:39.414Z,101861.84
2022-10-05T06:18:28.322Z,101867.25
2022-10-05T06:21:22.469Z,101865.44
2022-10-05T06:24:19.344Z,101880.00
2022-10-05T06:27:40.305Z,101882.13
2022-10-05T06:30:20.969Z,101873.47
2022-10-05T06:33:33.293Z,101879.56
2022-10-05T06:36:39.335Z,101878.59
2022-10-05T06:39:22.433Z,101878.47
2022-10-05T06:42:22.305Z,101878.94
2022-10-05T06:45:53.334Z,101878.38
2022-10-05T06:49:24.229Z,101884.81
2022-10-05T06:52:45.374Z,101889.59
2022-10-05T06:55:48.279Z,101886.13
2022-10-05T06:59:06.289Z,101882.44
2022-10-05T07:02:11.308Z,101875.75
2022-10-05T07:05:02.382Z,101892.41
2022-10-05T07:08:05.234Z,101887.06
2022-10-05T07:11:22.364Z,101895.88
2022-10-05T07:14:18.254Z,101893.59
2022-10-05T07:17:33.237Z,101887.06
2022-10-05T07:20:23.248Z,101887.28
2022-10-05T07:23:42.337Z,101894.13
2022-10-05T07:26:48.523Z,101894.91
2022-10-05T07:29:35.358Z,101905.44
2022-10-05T07:32:22.259Z,101893.19
2022-10-05T07:35:50.247Z,101895.72
2022-10-05T07:38:41.451Z,101897.59
2022-10-05T07:41:58.241Z,101901.03
2022-10-05T07:44:47.098Z,101899.88
2022-10-05T07:47:52.202Z,101896.34
2022-10-05T07:50:46.244Z,101900.50
2022-10-05T07:53:39.212Z,101901.81
2022-10-05T07:56:32.165Z,101902.66
2022-10-05T07:59:39.181Z,101902.97
2022-10-05T08:02:41.309Z,101908.34
2022-10-05T08:05:37.186Z,101912.69
2022-10-05T08:08:35.214Z,101910.81
2022-10-05T08:11:33.166Z,101905.25
2022-10-05T08:14:30.197Z,101906.72
2022-10-05T08:17:49.227Z,101910.69
2022-10-05T08:20:39.370Z,101910.84
2022-10-05T08:23:51.179Z,101895.94
2022-10-05T08:27:02.160Z,101891.31
2022-10-05T08:30:07.149Z,101894.53
2022-10-05T08:32:58.149Z,101893.97
2022-10-05T08:35:51.337Z,101891.78
2022-10-05T08:38:42.154Z,101887.41
2022-10-05T08:41:55.193Z,101885.88
2022-10-05T08:45:12.117Z,101877.22
2022-10-05T08:48:11.184Z,101882.75
2022-10-05T08:51:39.175Z,101879.63
2022-10-05T08:54:46.732Z,101884.34
2022-10-05T08:57:57.141Z,101882.44
2022-10-05T09:01:21.231Z,101872.81
2022-10-05T09:04:20.068Z,101882.78
2022-10-05T09:07:37.979Z,101870.78
2022-10-05T09:10:37.120Z,101881.97
2022-10-05T09:13:26.238Z,101879.28
2022-10-05T09:16:22.213Z,101879.84
2022-10-05T09:19:51.154Z,101881.19
2022-10-05T09:22:54.584Z,101892.34
2022-10-05T09:26:22.142Z,101894.50
2022-10-05T09:29:33.138Z,101891.88
2022-10-05T09:32:19.247Z,101889.25
2022-10-05T09:35:44.095Z,101880.38
2022-10-05T09:38:43.110Z,101891.00
2022-10-05T09:41:29.336Z,101888.94
2022-10-05T09:44:41.058Z,101892.81
2022-10-05T09:47:56.080Z,101901.53
2022-10-05T09:50:45.304Z,101888.47
2022-10-05T09:54:19.115Z,101887.81
2022-10-05T09:57:22.193Z,101891.81
2022-10-05T10:00:36.115Z,101895.88
2022-10-05T10:04:00.043Z,101891.53
2022-10-05T10:07:24.211Z,101887.53
2022-10-05T10:10:13.066Z,101892.00
2022-10-05T10:13:02.800Z,101887.00
2022-10-05T10:15:49.124Z,101886.56
2022-10-05T10:19:06.906Z,101893.34
2022-10-05T10:22:26.053Z,101896.13
2022-10-05T10:25:38.094Z,101881.13
2022-10-05T10:28:37.790Z,101878.91
2022-10-05T10:32:02.039Z,101886.47
2022-10-05T10:35:40.028Z,101884.59
2022-10-05T10:38:23.833Z,101882.25
2022-10-05T10:41:55.028Z,101881.91
2022-10-05T10:44:59.022Z,101865.91
2022-10-05T10:48:25.409Z,101871.97
2022-10-05T10:51:19.746Z,101868.97
2022-10-05T10:54:19.223Z,101867.66
2022-10-05T10:57:17.121Z,101856.91
2022-10-05T11:00:00.170Z,101862.06
2022-10-05T11:03:15.119Z,101868.75
2022-10-05T11:06:33.997Z,101866.19
2022-10-05T11:09:41.971Z,101864.19
2022-10-05T11:12:59.992Z,101856.88
2022-10-05T11:19:05.012Z,101856.06
2022-10-05T11:22:10.037Z,101846.31
2022-10-05T11:25:39.004Z,101853.53
2022-10-05T11:28:53.027Z,101853.63
2022-10-05T11:31:42.137Z,101853.38
2022-10-05T11:34:41.043Z,101854.44
2022-10-05T11:37:55.206Z,101861.19
2022-10-05T11:40:57.039Z,101843.91
2022-10-05T11:43:55.138Z,101842.31
2022-10-05T11:47:00.003Z,101843.09
2022-10-05T11:50:05.683Z,101843.53
2022-10-05T11:53:00.005Z,101839.56
2022-10-05T11:56:00.010Z,101843.31
2022-10-05T11:58:58.618Z,101851.81
2022-10-05T12:01:50.936Z,101858.41
2022-10-05T12:04:47.066Z,101847.13
2022-10-05T12:08:03.945Z,101851.50
2022-10-05T12:11:16.927Z,101851.97
2022-10-05T12:14:15.973Z,101847.50
2022-10-05T12:17:07.429Z,101837.41
2022-10-05T12:20:01.957Z,101834.41
2022-10-05T12:22:50.809Z,101837.00
2022-10-05T12:25:47.933Z,101836.59
2022-10-05T12:28:37.348Z,101837.03
2022-10-05T12:31:53.927Z,101842.19
2022-10-05T12:35:05.923Z,101837.34
2022-10-05T12:37:52.288Z,101833.16
2022-10-05T12:40:47.942Z,101829.16
2022-10-05T12:44:39.885Z,101843.72
2022-10-05T12:47:53.913Z,101845.13
2022-10-05T12:51:02.067Z,101844.88
2022-10-05T12:54:00.937Z,101849.31
2022-10-05T12:57:15.825Z,101839.81
2022-10-05T13:00:23.506Z,101855.56
2022-10-05T13:03:24.927Z,101851.00
2022-10-05T13:06:27.343Z,101854.91
2022-10-05T13:09:20.958Z,101847.06
2022-10-05T13:12:16.893Z,101860.00
2022-10-05T13:15:13.202Z,101857.22
2022-10-05T13:18:14.875Z,101853.19
2022-10-05T13:21:27.089Z,101852.50
2022-10-05T13:24:30.910Z,101850.19
2022-10-05T13:27:28.425Z,101850.47
2022-10-05T13:30:20.906Z,101856.34
2022-10-05T13:33:26.932Z,101845.47
2022-10-05T13:36:35.023Z,101850.47
2022-10-05T13:39:36.914Z,101842.28
2022-10-05T13:42:25.579Z,101838.78
2022-10-05T13:45:33.952Z,101850.06
2022-10-05T13:48:52.981Z,101846.47
2022-10-05T13:51:50.835Z,101844.16
2022-10-05T13:54:52.007Z,101847.72
2022-10-05T13:57:51.804Z,101847.53
2022-10-05T14:00:39.839Z,101849.94
2022-10-05T14:03:33.966Z,101861.94
2022-10-05T14:06:37.917Z,101865.16
2022-10-05T14:09:22.143Z,101853.03
2022-10-05T14:12:18.983Z,101849.53
2022-10-05T14:15:20.004Z,101857.09
2022-10-05T14:18:06.905Z,101848.09
2022-10-05T14:21:03.049Z,101854.22
2022-10-05T14:23:49.857Z,101863.28
2022-10-05T14:26:31.802Z,101854.81
2022-10-05T14:29:27.826Z,101865.59
2022-10-05T14:32:23.840Z,101860.56
2022-10-05T14:35:09.993Z,101861.59
2022-10-05T14:38:02.901Z,101858.66
2022-10-05T14:40:44.913Z,101857.72
2022-10-05T14:43:31.788Z,101866.06
2022-10-05T14:46:38.807Z,101860.19
2022-10-05T14:49:49.857Z,101865.72
2022-10-05T14:52:51.637Z,101860.69
2022-10-05T14:55:55.795Z,101867.63
2022-10-05T14:58:41.806Z,101869.91
2022-10-05T15:01:42.895Z,101870.22
2022-10-05T15:04:37.920Z,101878.94
2022-10-05T15:07:30.842Z,101876.81
2022-10-05T15:10:36.948Z,101878.44
2022-10-05T15:27:50.527Z,101888.81
2022-10-05T15:30:35.977Z,101884.06
2022-10-05T15:33:48.394Z,101893.72
2022-10-05T15:36:48.004Z,101894.09
2022-10-05T15:39:54.330Z,101904.72
2022-10-05T15:42:46.531Z,101909.16
2022-10-05T15:45:44.363Z,101910.59
2022-10-05T15:49:00.324Z,101910.94
2022-10-05T15:51:57.262Z,101918.16
2022-10-05T15:55:21.315Z,101919.47
2022-10-05T15:58:31.594Z,101922.91
2022-10-05T16:01:47.627Z,101924.88
2022-10-05T16:04:43.329Z,101918.47
2022-10-05T16:07:50.986Z,101930.09
2022-10-05T16:10:37.612Z,101926.69
2022-10-05T16:13:40.356Z,101926.97
2022-10-05T16:17:12.819Z,101930.41
2022-10-05T16:21:00.273Z,101923.16
2022-10-05T16:23:48.385Z,101933.66
2022-10-05T16:27:13.382Z,101944.41
2022-10-05T16:30:01.278Z,101940.00
2022-10-05T16:33:02.249Z,101946.56
2022-10-05T16:36:03.263Z,101943.75
2022-10-05T16:38:58.224Z,101946.19
2022-10-05T16:42:08.274Z,101951.41
2022-10-05T16:45:06.950Z,101944.69
2022-10-05T16:48:03.297Z,101948.75
2022-10-05T16:51:04.073Z,101952.53
2022-10-05T16:53:56.229Z,101955.44
2022-10-05T16:57:25.271Z,101966.41
2022-10-05T17:00:15.974Z,101966.19
2022-10-05T17:03:20.247Z,101967.16
2022-10-05T17:06:10.257Z,101964.31
2022-10-05T17:09:26.219Z,101970.41
2022-10-05T17:12:25.194Z,101975.16
2022-10-05T17:15:27.376Z,101979.88
2022-10-05T17:18:10.767Z,101974.13
2022-10-05T17:21:22.233Z,101975.69
2022-10-05T17:24:23.311Z,101978.06
2022-10-05T17:27:27.330Z,101979.03
2022-10-05T17:30:44.366Z,101984.59
2022-10-05T17:33:37.216Z,102000.78
2022-10-05T17:36:32.196Z,101991.13
2022-10-05T17:39:28.250Z,101991.84
2022-10-05T17:42:41.199Z,102005.72
2022-10-05T17:45:21.546Z,102014.50
2022-10-05T17:48:12.178Z,102021.81
2022-10-05T17:51:18.185Z,102018.31
2022-10-05T17:54:17.221Z,102016.69
2022-10-05T17:57:04.354Z,102020.91
2022-10-05T17:59:57.151Z,102007.84
2022-10-05T18:02:42.860Z,102020.06
2022-10-05T18:05:39.180Z,102015.44
2022-10-05T18:08:30.247Z,102024.94
2022-10-05T18:11:24.258Z,102026.69
2022-10-05T18:14:31.197Z,102028.22
2022-10-05T18:17:19.221Z,102026.56
2022-10-05T18:20:33.164Z,102026.78
2022-10-05T18:23:13.533Z,102027.63
2022-10-05T18:26:11.158Z,102038.72
2022-10-05T18:29:43.155Z,102033.25
2022-10-05T18:32:41.131Z,102032.03
2022-10-05T18:35:40.202Z,102029.47
2022-10-05T18:38:36.154Z,102033.75
2022-10-05T18:41:31.947Z,102029.75
2022-10-05T18:44:37.166Z,102026.25
2022-10-05T18:47:40.207Z,102024.59
2022-10-05T18:50:55.118Z,102038.13
2022-10-05T18:54:33.070Z,102031.53
2022-10-05T18:57:42.088Z,102029.25
2022-10-05T19:00:27.206Z,102036.97
2022-10-05T19:03:30.056Z,102035.72
2022-10-05T19:06:26.214Z,102028.84
2022-10-05T19:09:17.087Z,102021.66
2022-10-05T19:12:07.062Z,102033.56
2022-10-05T19:15:07.033Z,102038.38
2022-10-05T19:18:08.071Z,102031.00
2022-10-05T19:21:28.066Z,102032.47
2022-10-05T19:24:46.175Z,102037.47
2022-10-05T19:27:41.031Z,102033.44
2022-10-05T19:30:32.047Z,102037.06
2022-10-05T19:33:27.584Z,102032.00
2022-10-05T19:36:29.068Z,102030.53
2022-10-05T19:39:17.298Z,102033.41
2022-10-05T19:42:04.049Z,102028.38
2022-10-05T19:44:58.196Z,102029.34
2022-10-05T19:48:00.027Z,102031.59
2022-10-05T19:50:53.717Z,102025.97
2022-10-05T19:53:44.058Z,102033.94
2022-10-05T19:56:31.227Z,102035.09
2022-10-05T19:59:32.029Z,102041.00
2022-10-05T20:02:23.019Z,102027.97
2022-10-05T20:05:19.996Z,102032.53
2022-10-05T20:08:01.259Z,102022.28
2022-10-05T20:10:47.969Z,102026.38
2022-10-05T20:13:35.017Z,102033.69
2022-10-05T20:16:49.024Z,102036.81
2022-10-05T20:19:53.613Z,102039.53
2022-10-05T20:22:53.007Z,102034.59
2022-10-05T20:25:49.980Z,102039.38
2022-10-05T20:28:37.999Z,102045.72
2022-10-05T20:31:27.084Z,102043.78
2022-10-05T20:34:14.992Z,102039.38
2022-10-05T20:37:03.002Z,102046.88
2022-10-05T20:39:43.897Z,102043.94
2022-10-05T20:42:31.960Z,102042.72
2022-10-05T20:45:13.047Z,102048.88
2022-10-05T20:47:59.937Z,102045.81
2022-10-05T20:50:47.489Z,102043.47
2022-10-05T20:53:26.941Z,102047.59
2022-10-05T20:56:07.309Z,102053.19
2022-10-05T20:58:53.941Z,102037.78
2022-10-05T21:01:41.265Z,102043.31
2022-10-05T21:04:22.991Z,102036.66
2022-10-05T21:07:11.942Z,102037.41
2022-10-05T21:09:58.947Z,102035.03
2022-10-05T21:12:45.933Z,102041.97
2022-10-05T21:15:26.025Z,102039.50
2022-10-05T21:18:12.915Z,102038.09
2022-10-05T21:20:53.050Z,102033.78
2022-10-05T21:23:40.908Z,102027.75
2022-10-05T21:26:21.998Z,102038.53
2022-10-05T21:29:12.275Z,102032.78
2022-10-05T21:31:53.096Z,102030.28
2022-10-05T21:34:39.910Z,102031.19
2022-10-05T21:37:20.062Z,102029.56
2022-10-05T21:40:06.879Z,102032.53
2022-10-05T21:42:46.959Z,102028.63
2022-10-05T21:45:34.937Z,102032.53
2022-10-05T21:48:14.975Z,102034.00
2022-10-05T21:51:01.878Z,102032.00
2022-10-05T21:53:52.915Z,102032.53
2022-10-05T21:56:37.950Z,102033.66
2022-10-05T21:59:26.860Z,102034.47
2022-10-05T22:02:07.329Z,102021.53
2022-10-05T22:04:53.868Z,102021.88
2022-10-05T22:07:35.132Z,102012.19
2022-10-05T22:10:21.875Z,102017.34
2022-10-05T22:13:03.557Z,102021.72
2022-10-05T22:15:49.878Z,102013.19
2022-10-05T22:18:37.341Z,102010.94
2022-10-05T22:21:18.819Z,102008.88
2022-10-05T22:24:00.276Z,102002.28
2022-10-05T22:26:47.874Z,102004.88
2022-10-05T22:29:31.543Z,101998.59
2022-10-05T22:32:17.823Z,101997.53
2022-10-05T22:35:09.115Z,102002.84
2022-10-05T22:37:51.933Z,101995.69
2022-10-05T22:40:38.922Z,102000.53
2022-10-05T22:43:18.939Z,101994.47
2022-10-05T22:46:05.866Z,102003.09
2022-10-05T22:48:46.924Z,101999.78
2022-10-05T22:51:33.906Z,101999.84
2022-10-05T22:54:14.304Z,101992.97
2022-10-05T22:57:00.795Z,101992.72
2022-10-05T22:59:40.873Z,101989.38
2022-10-05T23:02:27.866Z,101992.19
2022-10-05T23:05:08.313Z,101995.25
2022-10-05T23:07:54.791Z,101990.84
2022-10-05T23:10:34.938Z,101995.81
2022-10-05T23:13:21.785Z,101999.63
2022-10-05T23:16:09.830Z,101992.69
2022-10-05T23:18:58.780Z,102003.09
2022-10-05T23:21:45.780Z,102002.38
2022-10-05T23:24:26.139Z,101993.88
2022-10-05T23:27:12.768Z,101987.78
2022-10-05T23:29:59.757Z,101992.19
2022-10-05T23:32:45.040Z,101999.41
2022-10-05T23:35:31.747Z,101998.94
2022-10-05T23:38:11.859Z,101987.63
2022-10-05T23:40:58.776Z,101983.50
2022-10-05T23:43:45.745Z,101986.81
2022-10-05T23:46:26.244Z,101992.91
2022-10-05T23:49:12.695Z,101986.84
2022-10-05T23:51:59.726Z,101989.28
2022-10-05T23:54:39.795Z,101979.88
2022-10-05T23:57:26.722Z,101974.06
